createdAt,value
2022-12-01T00:00:27.973Z,102853.34
2022-12-01T00:00:59.860Z,102850.91
2022-12-01T00:01:31.511Z,102847.97
2022-12-01T00:02:03.164Z,102848.75
2022-12-01T00:02:34.892Z,102854.69
2022-12-01T00:03:06.575Z,102853.06
2022-12-01T00:03:38.567Z,102848.19
2022-12-01T00:04:10.240Z,102859.81
2022-12-01T00:04:43.936Z,102855.22
2022-12-01T00:05:15.395Z,102852.50
2022-12-01T00:05:46.858Z,102847.97
2022-12-01T00:06:20.421Z,102847.09
2022-12-01T00:06:51.897Z,102846.88
2022-12-01T00:07:23.353Z,102852.50
2022-12-01T00:07:55.055Z,102840.66
2022-12-01T00:08:27.421Z,102856.53
2022-12-01T00:09:20.035Z,102848.72
2022-12-01T00:10:10.551Z,102850.63
2022-12-01T00:10:41.934Z,102852.22
2022-12-01T00:11:13.305Z,102849.53
2022-12-01T00:11:44.807Z,102849.53
2022-12-01T00:12:16.257Z,102849.53
2022-12-01T00:12:48.009Z,102842.75
2022-12-01T00:14:08.096Z,102850.34
2022-12-01T00:14:39.515Z,102847.63
2022-12-01T00:15:11.411Z,102853.03
2022-12-01T00:15:42.744Z,102851.94
2022-12-01T00:16:16.373Z,102850.84
2022-12-01T00:16:47.939Z,102855.16
2022-12-01T00:17:19.478Z,102853.56
2022-12-01T00:17:51.044Z,102854.06
2022-12-01T00:18:22.449Z,102854.06
2022-12-01T00:18:53.859Z,102846.78
2022-12-01T00:19:26.293Z,102838.44
2022-12-01T00:19:57.724Z,102851.09
2022-12-01T00:20:30.011Z,102849.47
2022-12-01T00:21:01.543Z,102853.00
2022-12-01T00:21:32.958Z,102848.97
2022-12-01T00:22:04.468Z,102850.28
2022-12-01T00:22:35.994Z,102851.09
2022-12-01T00:23:07.563Z,102850.78
2022-12-01T00:23:38.930Z,102846.47
2022-12-01T00:24:11.905Z,102851.31
2022-12-01T00:24:43.375Z,102848.88
2022-12-01T00:25:18.157Z,102849.69
2022-12-01T00:25:49.686Z,102846.97
2022-12-01T00:26:21.863Z,102849.69
2022-12-01T00:26:53.224Z,102850.50
2022-12-01T00:27:24.704Z,102849.41
2022-12-01T00:27:56.085Z,102846.47
2022-12-01T00:28:27.511Z,102844.28
2022-12-01T00:28:59.685Z,102849.41
2022-12-01T00:29:31.129Z,102844.88
2022-12-01T00:30:02.587Z,102845.09
2022-12-01T00:30:33.962Z,102856.69
2022-12-01T00:31:09.606Z,102853.47
2022-12-01T00:31:41.302Z,102849.47
2022-12-01T00:32:13.822Z,102849.16
2022-12-01T00:32:45.981Z,102857.28
2022-12-01T00:33:17.407Z,102847.59
2022-12-01T00:33:48.781Z,102848.69
2022-12-01T00:34:24.094Z,102854.28
2022-12-01T00:34:55.471Z,102852.75
2022-12-01T00:35:27.118Z,102848.97
2022-12-01T00:36:00.176Z,102845.69
2022-12-01T00:36:32.056Z,102849.97
2022-12-01T00:37:04.385Z,102849.97
2022-12-01T00:37:36.341Z,102851.31
2022-12-01T00:38:07.975Z,102855.63
2022-12-01T00:38:39.665Z,102857.50
2022-12-01T00:39:11.009Z,102854.00
2022-12-01T00:39:42.408Z,102851.31
2022-12-01T00:40:14.188Z,102843.00
2022-12-01T00:40:45.570Z,102844.56
2022-12-01T00:41:17.381Z,102841.88
2022-12-01T00:41:48.909Z,102847.28
2022-12-01T00:42:20.986Z,102851.00
2022-12-01T00:42:52.407Z,102842.66
2022-12-01T00:43:24.879Z,102850.22
2022-12-01T00:43:56.293Z,102844.28
2022-12-01T00:44:27.667Z,102843.19
2022-12-01T00:44:59.081Z,102847.50
2022-12-01T00:45:30.662Z,102845.91
2022-12-01T00:46:02.292Z,102843.72
2022-12-01T00:46:33.971Z,102842.91
2022-12-01T00:47:05.488Z,102843.47
2022-12-01T00:47:36.912Z,102838.06
2022-12-01T00:48:08.466Z,102841.59
2022-12-01T00:48:39.991Z,102844.81
2022-12-01T00:49:15.173Z,102843.72
2022-12-01T00:49:47.234Z,102840.50
2022-12-01T00:50:18.980Z,102839.41
2022-12-01T00:50:52.736Z,102841.31
2022-12-01T00:51:24.562Z,102844.53
2022-12-01T00:51:56.142Z,102842.63
2022-12-01T00:52:27.572Z,102842.09
2022-12-01T00:52:59.415Z,102839.94
2022-12-01T00:53:31.096Z,102838.31
2022-12-01T00:54:02.578Z,102845.84
2022-12-01T00:54:34.023Z,102844.75
2022-12-01T00:55:05.881Z,102843.94
2022-12-01T00:55:37.360Z,102839.63
2022-12-01T00:56:08.742Z,102847.47
2022-12-01T00:56:40.086Z,102842.06
2022-12-01T00:57:11.735Z,102845.03
2022-12-01T00:57:43.177Z,102840.72
2022-12-01T00:58:14.668Z,102844.75
2022-12-01T00:58:46.075Z,102848.28
2022-12-01T00:59:17.624Z,102843.16
2022-12-01T00:59:49.428Z,102844.25
2022-12-01T01:00:21.171Z,102850.97
2022-12-01T01:01:00.869Z,102849.88
2022-12-01T01:01:32.431Z,102846.38
2022-12-01T01:02:07.592Z,102855.28
2022-12-01T01:02:40.233Z,102848.78
2022-12-01T01:03:11.955Z,102843.38
2022-12-01T01:03:43.402Z,102852.28
2022-12-01T01:04:15.170Z,102847.97
2022-12-01T01:04:46.604Z,102846.91
2022-12-01T01:05:18.324Z,102853.63
2022-12-01T01:05:49.797Z,102843.91
2022-12-01T01:06:21.238Z,102846.59
2022-12-01T01:06:52.722Z,102846.91
2022-12-01T01:07:24.082Z,102856.59
2022-12-01T01:07:55.616Z,102857.41
2022-12-01T01:08:27.023Z,102850.41
2022-12-01T01:08:58.661Z,102848.78
2022-12-01T01:09:31.560Z,102850.69
2022-12-01T01:10:03.044Z,102857.69
2022-12-01T01:10:38.112Z,102858.22
2022-12-01T01:11:09.689Z,102859.03
2022-12-01T01:11:41.508Z,102855.28
2022-12-01T01:12:12.920Z,102849.06
2022-12-01T01:12:44.448Z,102858.50
2022-12-01T01:13:16.598Z,102859.84
2022-12-01T01:13:48.099Z,102851.22
2022-12-01T01:14:20.231Z,102859.59
2022-12-01T01:14:51.748Z,102851.78
2022-12-01T01:15:23.197Z,102862.00
2022-12-01T01:16:08.269Z,102858.78
2022-12-01T01:16:39.749Z,102865.22
2022-12-01T01:17:11.178Z,102856.31
2022-12-01T01:17:42.655Z,102855.81
2022-12-01T01:18:14.159Z,102860.41
2022-12-01T01:18:46.488Z,102867.66
2022-12-01T01:19:18.010Z,102864.16
2022-12-01T01:19:49.646Z,102860.13
2022-12-01T01:20:21.399Z,102866.31
2022-12-01T01:21:06.211Z,102866.84
2022-12-01T01:21:38.627Z,102867.94
2022-12-01T01:22:28.479Z,102863.63
2022-12-01T01:22:59.859Z,102874.16
2022-12-01T01:23:31.396Z,102869.56
2022-12-01T01:24:03.047Z,102863.63
2022-12-01T01:24:34.649Z,102868.75
2022-12-01T01:25:06.391Z,102861.44
2022-12-01T01:25:37.787Z,102867.66
2022-12-01T01:26:16.774Z,102863.88
2022-12-01T01:26:48.241Z,102865.22
2022-12-01T01:27:19.838Z,102866.31
2022-12-01T01:27:51.591Z,102864.94
2022-12-01T01:28:23.023Z,102866.56
2022-12-01T01:28:57.777Z,102859.53
2022-12-01T01:29:29.196Z,102862.25
2022-12-01T01:30:00.569Z,102859.03
2022-12-01T01:30:32.197Z,102867.06
2022-12-01T01:31:11.225Z,102861.66
2022-12-01T01:31:42.614Z,102858.13
2022-12-01T01:32:14.116Z,102859.75
2022-12-01T01:32:45.513Z,102851.44
2022-12-01T01:33:16.847Z,102858.13
2022-12-01T01:33:48.361Z,102856.25
2022-12-01T01:34:20.020Z,102860.06
2022-12-01T01:34:51.818Z,102855.44
2022-12-01T01:35:23.350Z,102861.88
2022-12-01T01:35:58.890Z,102855.44
2022-12-01T01:36:30.585Z,102866.78
2022-12-01T01:37:01.990Z,102860.84
2022-12-01T01:37:33.473Z,102868.94
2022-12-01T01:38:05.069Z,102860.84
2022-12-01T01:38:37.026Z,102865.97
2022-12-01T01:39:08.460Z,102864.88
2022-12-01T01:40:28.793Z,102860.28
2022-12-01T01:41:01.068Z,102868.09
2022-12-01T01:41:33.207Z,102866.78
2022-12-01T01:42:04.659Z,102861.88
2022-12-01T01:42:36.105Z,102863.50
2022-12-01T01:43:15.094Z,102865.16
2022-12-01T01:44:02.844Z,102870.00
2022-12-01T01:45:00.508Z,102873.50
2022-12-01T01:45:32.146Z,102871.09
2022-12-01T01:46:05.135Z,102874.06
2022-12-01T01:46:36.814Z,102869.47
2022-12-01T01:47:08.305Z,102864.06
2022-12-01T01:47:40.780Z,102863.25
2022-12-01T01:48:16.491Z,102871.09
2022-12-01T01:48:52.395Z,102868.91
2022-12-01T01:49:23.759Z,102864.31
2022-12-01T01:49:57.357Z,102871.09
2022-12-01T01:50:29.191Z,102871.09
2022-12-01T01:51:01.304Z,102862.97
2022-12-01T01:51:40.573Z,102872.69
2022-12-01T01:52:12.183Z,102868.38
2022-12-01T01:52:48.638Z,102871.88
2022-12-01T01:53:20.895Z,102870.56
2022-12-01T01:53:56.352Z,102861.44
2022-12-01T01:54:33.670Z,102867.38
2022-12-01T01:55:05.834Z,102870.06
2022-12-01T01:55:37.981Z,102867.06
2022-12-01T01:56:09.895Z,102866.25
2022-12-01T01:56:44.264Z,102872.19
2022-12-01T01:57:23.856Z,102865.16
2022-12-01T01:57:55.494Z,102866.25
2022-12-01T01:58:27.697Z,102875.69
2022-12-01T01:58:59.930Z,102866.56
2022-12-01T01:59:36.134Z,102867.84
2022-12-01T02:00:16.215Z,102872.69
2022-12-01T02:00:48.043Z,102868.38
2022-12-01T02:01:19.869Z,102871.59
2022-12-01T02:02:00.171Z,102868.09
2022-12-01T02:02:32.199Z,102874.31
2022-12-01T02:03:03.922Z,102868.63
2022-12-01T02:04:28.476Z,102877.53
2022-12-01T02:05:02.525Z,102874.81
2022-12-01T02:05:35.573Z,102873.75
2022-12-01T02:06:09.364Z,102871.84
2022-12-01T02:06:40.758Z,102872.13
2022-12-01T02:07:16.209Z,102871.84
2022-12-01T02:07:48.580Z,102861.59
2022-12-01T02:08:20.021Z,102868.91
2022-12-01T02:08:51.712Z,102871.84
2022-12-01T02:09:23.139Z,102863.50
2022-12-01T02:09:55.632Z,102865.09
2022-12-01T02:10:48.399Z,102866.16
2022-12-01T02:11:31.539Z,102874.25
2022-12-01T02:12:41.183Z,102868.84
2022-12-01T02:13:51.334Z,102866.16
2022-12-01T02:14:25.730Z,102866.44
2022-12-01T02:15:08.504Z,102866.44
2022-12-01T02:16:18.330Z,102865.63
2022-12-01T02:17:12.741Z,102870.50
2022-12-01T02:17:57.282Z,102866.19
2022-12-01T02:18:44.493Z,102871.59
2022-12-01T02:19:53.235Z,102868.09
2022-12-01T02:20:30.541Z,102857.28
2022-12-01T02:21:27.635Z,102854.59
2022-12-01T02:22:12.585Z,102858.38
2022-12-01T02:23:11.419Z,102859.19
2022-12-01T02:24:16.129Z,102856.75
2022-12-01T02:25:03.581Z,102861.06
2022-12-01T02:26:04.666Z,102862.69
2022-12-01T02:26:53.766Z,102852.97
2022-12-01T02:27:55.455Z,102858.09
2022-12-01T02:28:57.057Z,102857.28
2022-12-01T02:29:58.723Z,102860.28
2022-12-01T02:30:41.916Z,102854.88
2022-12-01T02:31:43.034Z,102859.19
2022-12-01T02:32:36.206Z,102863.50
2022-12-01T02:33:17.604Z,102857.28
2022-12-01T02:33:57.321Z,102855.16
2022-12-01T02:34:31.157Z,102859.19
2022-12-01T02:35:13.612Z,102864.31
2022-12-01T02:36:19.964Z,102858.91
2022-12-01T02:36:53.833Z,102865.09
2022-12-01T02:37:41.372Z,102860.78
2022-12-01T02:38:29.657Z,102856.19
2022-12-01T02:39:11.868Z,102862.41
2022-12-01T02:40:05.304Z,102862.41
2022-12-01T02:40:53.161Z,102855.38
2022-12-01T02:41:37.582Z,102858.09
2022-12-01T02:42:37.098Z,102857.28
2022-12-01T02:43:32.596Z,102844.06
2022-12-01T02:44:10.896Z,102853.78
2022-12-01T02:44:45.010Z,102857.28
2022-12-01T02:45:25.430Z,102853.78
2022-12-01T02:46:09.265Z,102855.69
2022-12-01T02:46:46.158Z,102863.50
2022-12-01T02:47:19.548Z,102862.69
2022-12-01T02:47:54.321Z,102860.78
2022-12-01T02:48:32.465Z,102858.09
2022-12-01T02:49:12.320Z,102857.06
2022-12-01T02:49:50.542Z,102861.38
2022-12-01T02:50:25.516Z,102858.09
2022-12-01T02:51:00.902Z,102861.88
2022-12-01T02:51:35.238Z,102858.91
2022-12-01T02:52:06.945Z,102866.19
2022-12-01T02:52:41.436Z,102860.50
2022-12-01T02:53:17.396Z,102865.91
2022-12-01T02:53:49.660Z,102859.19
2022-12-01T02:54:22.031Z,102860.78
2022-12-01T02:54:53.769Z,102862.69
2022-12-01T02:55:25.127Z,102860.00
2022-12-01T02:55:58.851Z,102859.69
2022-12-01T02:56:30.563Z,102862.69
2022-12-01T02:57:02.019Z,102861.88
2022-12-01T02:57:33.443Z,102870.50
2022-12-01T02:58:14.315Z,102857.84
2022-12-01T02:58:45.735Z,102860.56
2022-12-01T02:59:17.224Z,102863.25
2022-12-01T02:59:54.247Z,102863.78
2022-12-01T03:00:26.175Z,102866.47
2022-12-01T03:01:21.268Z,102871.88
2022-12-01T03:01:58.578Z,102870.00
2022-12-01T03:03:06.103Z,102870.00
2022-12-01T03:03:48.597Z,102869.19
2022-12-01T03:04:50.194Z,102866.78
2022-12-01T03:05:35.320Z,102867.56
2022-12-01T03:06:19.351Z,102874.06
2022-12-01T03:07:02.727Z,102871.09
2022-12-01T03:07:58.511Z,102864.06
2022-12-01T03:08:45.951Z,102858.66
2022-12-01T03:09:38.545Z,102870.28
2022-12-01T03:10:33.927Z,102867.56
2022-12-01T03:11:05.705Z,102866.78
2022-12-01T03:12:28.370Z,102871.09
2022-12-01T03:13:05.561Z,102871.09
2022-12-01T03:14:01.534Z,102864.88
2022-12-01T03:14:58.317Z,102868.09
2022-12-01T03:16:06.406Z,102868.09
2022-12-01T03:16:51.851Z,102867.00
2022-12-01T03:17:29.418Z,102871.31
2022-12-01T03:18:16.377Z,102867.00
2022-12-01T03:18:57.484Z,102862.69
2022-12-01T03:19:41.838Z,102871.59
2022-12-01T03:20:20.130Z,102867.00
2022-12-01T03:21:06.096Z,102864.31
2022-12-01T03:22:06.697Z,102866.72
2022-12-01T03:22:44.226Z,102865.63
2022-12-01T03:23:21.812Z,102859.69
2022-12-01T03:24:00.853Z,102862.94
2022-12-01T03:24:34.055Z,102864.03
2022-12-01T03:25:09.065Z,102868.63
2022-12-01T03:25:44.266Z,102865.91
2022-12-01T03:26:20.221Z,102863.22
2022-12-01T03:26:57.123Z,102866.72
2022-12-01T03:27:32.718Z,102852.69
2022-12-01T03:28:22.229Z,102857.81
2022-12-01T03:28:59.730Z,102857.53
2022-12-01T03:29:38.534Z,102857.00
2022-12-01T03:30:11.748Z,102859.19
2022-12-01T03:30:46.545Z,102860.78
2022-12-01T03:31:22.905Z,102858.66
2022-12-01T03:31:59.966Z,102855.69
2022-12-01T03:32:47.471Z,102861.59
2022-12-01T03:33:27.076Z,102860.50
2022-12-01T03:34:07.868Z,102867.81
2022-12-01T03:34:46.190Z,102863.78
2022-12-01T03:35:24.336Z,102864.59
2022-12-01T03:36:15.071Z,102866.72
2022-12-01T03:36:54.563Z,102866.72
2022-12-01T03:37:39.033Z,102860.78
2022-12-01T03:38:20.639Z,102856.19
2022-12-01T03:39:00.009Z,102864.03
2022-12-01T03:39:35.670Z,102858.91
2022-12-01T03:40:11.014Z,102859.69
2022-12-01T03:40:44.819Z,102857.81
2022-12-01T03:41:21.491Z,102863.50
2022-12-01T03:42:17.262Z,102860.50
2022-12-01T03:42:57.221Z,102865.09
2022-12-01T03:43:33.760Z,102866.19
2022-12-01T03:44:14.931Z,102861.88
2022-12-01T03:44:54.304Z,102860.78
2022-12-01T03:45:36.500Z,102864.59
2022-12-01T03:46:19.481Z,102868.91
2022-12-01T03:46:58.085Z,102861.06
2022-12-01T03:47:32.515Z,102867.28
2022-12-01T03:48:04.792Z,102866.47
2022-12-01T03:48:38.336Z,102865.69
2022-12-01T03:49:10.703Z,102860.28
2022-12-01T03:49:42.944Z,102857.06
2022-12-01T03:50:15.609Z,102868.66
2022-12-01T03:51:02.577Z,102872.69
2022-12-01T03:51:44.032Z,102868.38
2022-12-01T03:52:21.387Z,102873.50
2022-12-01T03:52:59.952Z,102870.06
2022-12-01T03:53:44.753Z,102865.75
2022-12-01T03:54:21.894Z,102864.66
2022-12-01T03:55:07.964Z,102871.88
2022-12-01T03:55:43.849Z,102871.09
2022-12-01T03:56:20.232Z,102856.25
2022-12-01T03:56:56.605Z,102865.16
2022-12-01T03:57:43.300Z,102860.28
2022-12-01T03:58:20.472Z,102870.00
2022-12-01T03:58:55.966Z,102866.19
2022-12-01T03:59:29.429Z,102857.28
2022-12-01T04:00:01.846Z,102864.59
2022-12-01T04:00:33.606Z,102860.28
2022-12-01T04:01:07.475Z,102859.69
2022-12-01T04:01:57.543Z,102852.97
2022-12-01T04:02:29.171Z,102861.31
2022-12-01T04:03:04.112Z,102863.72
2022-12-01T04:03:35.958Z,102853.50
2022-12-01T04:04:09.903Z,102870.50
2022-12-01T04:04:41.256Z,102862.69
2022-12-01T04:05:13.302Z,102866.19
2022-12-01T04:05:44.906Z,102872.69
2022-12-01T04:06:16.268Z,102865.69
2022-12-01T04:06:50.455Z,102871.88
2022-12-01T04:07:23.444Z,102875.41
2022-12-01T04:07:55.080Z,102865.97
2022-12-01T04:08:26.995Z,102869.47
2022-12-01T04:08:58.356Z,102864.34
2022-12-01T04:09:29.810Z,102869.75
2022-12-01T04:10:01.215Z,102864.06
2022-12-01T04:10:33.152Z,102861.38
2022-12-01T04:11:29.511Z,102868.66
2022-12-01T04:12:42.297Z,102860.56
2022-12-01T04:13:22.649Z,102868.09
2022-12-01T04:13:54.047Z,102854.16
2022-12-01T04:14:25.511Z,102864.16
2022-12-01T04:14:57.553Z,102863.25
2022-12-01T04:15:29.059Z,102864.34
2022-12-01T04:16:00.546Z,102860.63
2022-12-01T04:16:32.179Z,102864.16
2022-12-01T04:17:03.807Z,102871.97
2022-12-01T04:17:35.857Z,102870.88
2022-12-01T04:18:07.273Z,102864.16
2022-12-01T04:18:38.631Z,102871.66
2022-12-01T04:19:11.482Z,102877.88
2022-12-01T04:19:42.914Z,102871.16
2022-12-01T04:20:15.903Z,102860.91
2022-12-01T04:20:49.171Z,102874.66
2022-12-01T04:21:20.703Z,102869.56
2022-12-01T04:21:52.090Z,102871.16
2022-12-01T04:22:24.220Z,102872.25
2022-12-01T04:22:55.664Z,102873.34
2022-12-01T04:23:45.731Z,102869.84
2022-12-01T04:24:17.215Z,102872.53
2022-12-01T04:24:48.724Z,102870.63
2022-12-01T04:25:20.248Z,102869.84
2022-12-01T04:25:58.747Z,102873.06
2022-12-01T04:26:32.697Z,102872.25
2022-12-01T04:27:04.003Z,102874.16
2022-12-01T04:27:35.939Z,102869.84
2022-12-01T04:28:07.388Z,102871.97
2022-12-01T04:28:38.809Z,102870.34
2022-12-01T04:29:11.498Z,102866.84
2022-12-01T04:29:42.973Z,102866.31
2022-12-01T04:30:14.892Z,102870.88
2022-12-01T04:30:47.310Z,102870.34
2022-12-01T04:31:18.966Z,102868.47
2022-12-01T04:31:50.515Z,102877.06
2022-12-01T04:32:22.186Z,102870.88
2022-12-01T04:32:53.680Z,102871.44
2022-12-01T04:34:14.296Z,102871.66
2022-12-01T04:34:45.767Z,102878.38
2022-12-01T04:35:17.294Z,102878.66
2022-12-01T04:35:58.765Z,102878.09
2022-12-01T04:36:32.444Z,102878.38
2022-12-01T04:37:04.501Z,102864.94
2022-12-01T04:37:36.506Z,102880.00
2022-12-01T04:38:08.025Z,102878.66
2022-12-01T04:38:39.492Z,102870.34
2022-12-01T04:39:10.952Z,102873.59
2022-12-01T04:39:42.585Z,102875.47
2022-12-01T04:40:14.245Z,102874.06
2022-12-01T04:40:45.858Z,102877.56
2022-12-01T04:41:17.937Z,102881.91
2022-12-01T04:41:49.461Z,102870.88
2022-12-01T04:42:20.866Z,102873.50
2022-12-01T04:42:52.264Z,102870.06
2022-12-01T04:43:23.822Z,102873.25
2022-12-01T04:43:55.885Z,102882.69
2022-12-01T04:44:34.331Z,102874.06
2022-12-01T04:45:06.769Z,102880.28
2022-12-01T04:45:38.277Z,102875.97
2022-12-01T04:46:10.779Z,102866.03
2022-12-01T04:46:42.522Z,102877.06
2022-12-01T04:47:13.964Z,102873.59
2022-12-01T04:47:45.321Z,102873.88
2022-12-01T04:48:16.680Z,102870.88
2022-12-01T04:48:48.207Z,102867.66
2022-12-01T04:49:21.533Z,102867.06
2022-12-01T04:49:53.097Z,102866.03
2022-12-01T04:50:24.439Z,102869.03
2022-12-01T04:50:55.812Z,102876.28
2022-12-01T04:51:27.447Z,102864.72
2022-12-01T04:51:59.020Z,102873.88
2022-12-01T04:52:35.005Z,102863.63
2022-12-01T04:53:06.841Z,102866.84
2022-12-01T04:53:38.336Z,102870.34
2022-12-01T04:54:09.895Z,102871.44
2022-12-01T04:54:41.371Z,102866.84
2022-12-01T04:55:15.299Z,102869.25
2022-12-01T04:55:46.876Z,102876.28
2022-12-01T04:56:18.497Z,102875.47
2022-12-01T04:56:49.898Z,102875.97
2022-12-01T04:57:21.365Z,102870.88
2022-12-01T04:57:52.743Z,102873.25
2022-12-01T04:58:24.215Z,102863.88
2022-12-01T04:58:55.666Z,102869.75
2022-12-01T04:59:27.123Z,102871.66
2022-12-01T04:59:58.431Z,102871.09
2022-12-01T05:00:30.232Z,102865.69
2022-12-01T05:01:03.613Z,102862.44
2022-12-01T05:01:35.214Z,102863.78
2022-12-01T05:02:06.751Z,102869.47
2022-12-01T05:02:38.088Z,102867.56
2022-12-01T05:03:14.725Z,102868.38
2022-12-01T05:03:50.915Z,102872.69
2022-12-01T05:04:22.300Z,102869.47
2022-12-01T05:04:53.721Z,102876.19
2022-12-01T05:05:25.881Z,102869.19
2022-12-01T05:06:06.510Z,102870.00
2022-12-01T05:06:38.001Z,102875.69
2022-12-01T05:07:09.575Z,102877.28
2022-12-01T05:07:41.027Z,102874.06
2022-12-01T05:08:12.435Z,102872.19
2022-12-01T05:08:43.960Z,102873.25
2022-12-01T05:09:17.487Z,102867.66
2022-12-01T05:09:49.748Z,102873.25
2022-12-01T05:10:22.332Z,102867.38
2022-12-01T05:10:55.886Z,102870.06
2022-12-01T05:11:29.729Z,102874.34
2022-12-01T05:12:01.277Z,102873.88
2022-12-01T05:12:32.749Z,102863.63
2022-12-01T05:13:05.717Z,102868.19
2022-12-01T05:13:41.606Z,102876.03
2022-12-01T05:14:12.972Z,102878.75
2022-12-01T05:14:49.615Z,102876.03
2022-12-01T05:15:21.539Z,102875.47
2022-12-01T05:15:53.510Z,102878.19
2022-12-01T05:16:28.039Z,102877.38
2022-12-01T05:17:00.675Z,102868.50
2022-12-01T05:17:36.765Z,102873.63
2022-12-01T05:18:08.270Z,102872.00
2022-12-01T05:18:40.847Z,102870.13
2022-12-01T05:19:31.248Z,102875.81
2022-12-01T05:20:21.744Z,102872.53
2022-12-01T05:20:59.065Z,102864.44
2022-12-01T05:21:30.440Z,102865.22
2022-12-01T05:22:01.956Z,102868.22
2022-12-01T05:23:03.645Z,102872.53
2022-12-01T05:23:27.120Z,102873.09
2022-12-01T05:23:58.440Z,102875.28
2022-12-01T05:24:29.770Z,102870.16
2022-12-01T05:25:01.253Z,102866.94
2022-12-01T05:25:33.651Z,102871.00
2022-12-01T05:26:08.441Z,102877.75
2022-12-01T05:26:41.668Z,102876.66
2022-12-01T05:27:13.152Z,102880.44
2022-12-01T05:27:44.882Z,102878.84
2022-12-01T05:28:16.456Z,102879.13
2022-12-01T05:28:48.040Z,102881.00
2022-12-01T05:29:19.541Z,102889.94
2022-12-01T05:29:51.332Z,102880.22
2022-12-01T05:30:28.323Z,102885.09
2022-12-01T05:31:00.233Z,102884.28
2022-12-01T05:31:31.892Z,102888.09
2022-12-01T05:32:03.777Z,102896.69
2022-12-01T05:32:35.192Z,102897.28
2022-12-01T05:33:06.825Z,102892.09
2022-12-01T05:33:38.139Z,102896.22
2022-12-01T05:34:09.747Z,102898.91
2022-12-01T05:34:41.336Z,102888.94
2022-12-01T05:35:12.796Z,102890.03
2022-12-01T05:35:44.226Z,102888.16
2022-12-01T05:36:15.819Z,102891.66
2022-12-01T05:36:47.235Z,102894.88
2022-12-01T05:37:18.662Z,102897.84
2022-12-01T05:37:50.023Z,102896.25
2022-12-01T05:38:21.916Z,102895.72
2022-12-01T05:38:53.315Z,102886.00
2022-12-01T05:39:24.928Z,102880.38
2022-12-01T05:39:56.312Z,102893.81
2022-12-01T05:40:27.747Z,102885.19
2022-12-01T05:40:59.178Z,102894.06
2022-12-01T05:41:30.727Z,102888.44
2022-12-01T05:42:02.248Z,102881.66
2022-12-01T05:42:36.584Z,102886.25
2022-12-01T05:43:08.398Z,102887.56
2022-12-01T05:43:39.765Z,102892.69
2022-12-01T05:44:11.149Z,102890.56
2022-12-01T05:44:42.646Z,102887.88
2022-12-01T05:45:14.081Z,102887.56
2022-12-01T05:45:45.750Z,102882.47
2022-12-01T05:46:17.298Z,102889.19
2022-12-01T05:46:48.990Z,102883.50
2022-12-01T05:47:20.630Z,102890.81
2022-12-01T05:47:56.241Z,102887.50
2022-12-01T05:48:27.892Z,102882.69
2022-12-01T05:48:59.460Z,102885.91
2022-12-01T05:49:31.011Z,102878.59
2022-12-01T05:50:05.839Z,102892.09
2022-12-01T05:50:39.486Z,102884.28
2022-12-01T05:51:13.535Z,102882.38
2022-12-01T05:51:44.899Z,102885.41
2022-12-01T05:52:35.407Z,102889.69
2022-12-01T05:53:07.372Z,102883.78
2022-12-01T05:53:38.852Z,102886.50
2022-12-01T05:54:10.252Z,102884.59
2022-12-01T05:54:46.796Z,102888.38
2022-12-01T05:55:18.635Z,102889.19
2022-12-01T05:55:54.330Z,102895.09
2022-12-01T05:56:26.044Z,102889.47
2022-12-01T05:56:57.524Z,102886.50
2022-12-01T05:57:28.997Z,102890.28
2022-12-01T05:58:01.158Z,102894.59
2022-12-01T05:58:32.749Z,102888.94
2022-12-01T05:59:04.177Z,102881.66
2022-12-01T05:59:35.593Z,102881.66
2022-12-01T06:00:08.285Z,102881.38
2022-12-01T06:00:45.308Z,102883.50
2022-12-01T06:01:17.440Z,102885.91
2022-12-01T06:01:48.871Z,102884.28
2022-12-01T06:02:20.352Z,102874.59
2022-12-01T06:02:51.837Z,102880.50
2022-12-01T06:03:23.339Z,102877.28
2022-12-01T06:03:54.765Z,102883.50
2022-12-01T06:04:26.281Z,102884.81
2022-12-01T06:04:57.700Z,102884.81
2022-12-01T06:05:29.263Z,102872.38
2022-12-01T06:06:00.872Z,102880.50
2022-12-01T06:06:32.410Z,102872.97
2022-12-01T06:07:03.847Z,102873.78
2022-12-01T06:07:35.886Z,102874.34
2022-12-01T06:08:07.513Z,102876.19
2022-12-01T06:08:39.104Z,102872.19
2022-12-01T06:09:10.521Z,102876.78
2022-12-01T06:09:41.984Z,102876.50
2022-12-01T06:10:13.786Z,102876.53
2022-12-01T06:10:46.021Z,102879.47
2022-12-01T06:11:17.437Z,102869.75
2022-12-01T06:11:52.343Z,102873.84
2022-12-01T06:12:24.064Z,102878.16
2022-12-01T06:12:55.409Z,102867.09
2022-12-01T06:13:26.846Z,102876.00
2022-12-01T06:13:58.213Z,102874.91
2022-12-01T06:14:29.532Z,102873.31
2022-12-01T06:15:00.902Z,102879.81
2022-12-01T06:15:32.288Z,102878.47
2022-12-01T06:16:05.936Z,102871.47
2022-12-01T06:16:37.445Z,102877.94
2022-12-01T06:17:08.933Z,102877.94
2022-12-01T06:17:40.812Z,102883.91
2022-12-01T06:18:12.222Z,102882.81
2022-12-01T06:18:43.661Z,102886.31
2022-12-01T06:19:15.023Z,102889.31
2022-12-01T06:19:48.335Z,102892.59
2022-12-01T06:20:19.866Z,102890.47
2022-12-01T06:20:51.425Z,102892.09
2022-12-01T06:21:22.719Z,102892.38
2022-12-01T06:21:54.247Z,102888.84
2022-12-01T06:22:25.636Z,102891.56
2022-12-01T06:22:57.030Z,102877.00
2022-12-01T06:23:30.582Z,102891.59
2022-12-01T06:24:02.459Z,102886.72
2022-12-01T06:24:33.947Z,102887.28
2022-12-01T06:25:05.887Z,102892.41
2022-12-01T06:25:37.350Z,102898.09
2022-12-01T06:26:08.863Z,102889.97
2022-12-01T06:26:40.319Z,102888.94
2022-12-01T06:27:11.712Z,102893.75
2022-12-01T06:27:43.739Z,102899.72
2022-12-01T06:28:15.400Z,102884.41
2022-12-01T06:28:47.027Z,102891.09
2022-12-01T06:29:18.537Z,102886.56
2022-12-01T06:29:50.490Z,102887.88
2022-12-01T06:30:22.158Z,102888.69
2022-12-01T06:30:56.640Z,102893.28
2022-12-01T06:31:32.630Z,102894.88
2022-12-01T06:32:04.348Z,102897.91
2022-12-01T06:32:36.247Z,102894.38
2022-12-01T06:33:07.851Z,102895.47
2022-12-01T06:33:39.423Z,102887.94
2022-12-01T06:34:11.041Z,102900.06
2022-12-01T06:34:47.495Z,102894.44
2022-12-01T06:35:19.050Z,102888.22
2022-12-01T06:35:58.150Z,102900.34
2022-12-01T06:36:29.717Z,102894.16
2022-12-01T06:37:01.255Z,102895.22
2022-12-01T06:37:32.673Z,102896.03
2022-12-01T06:38:04.262Z,102892.25
2022-12-01T06:38:37.192Z,102885.53
2022-12-01T06:39:10.119Z,102888.22
2022-12-01T06:39:41.696Z,102888.75
2022-12-01T06:40:13.434Z,102896.84
2022-12-01T06:40:45.073Z,102895.22
2022-12-01T06:41:16.466Z,102892.56
2022-12-01T06:41:48.084Z,102893.91
2022-12-01T06:42:19.622Z,102891.19
2022-12-01T06:42:51.062Z,102900.38
2022-12-01T06:43:22.697Z,102897.16
2022-12-01T06:43:54.827Z,102891.22
2022-12-01T06:44:26.245Z,102896.09